Terminal Aerodrome Forecast
Issued by NWS Greer, SC

Home | Current Version | Previous Version | Text Only | Print | Product List | Glossary On
Versions: 1 2 3 4 5 6 7 8 9 10 11 12 13 14 15 16 17 18 19 20 21 22 23 24 25
000
FTUS42 KGSP 232100 AAB
TAFGSP
TAF AMD
KGSP 232131Z 2322/2418 03005KT P6SM VCTS SCT040CB BKN100
     FM232300 24005KT P6SM SCT050 BKN250
     FM240800 00000KT P6SM BKN070
     FM241500 24006KT P6SM BKN060 PROB30 2416/2418 4SM TSRA
      BKN040CB=

USA.gov is the U.S. government's official web portal to all federal, state and local government web resources and services.